Aeneas, Washington
Current Conditions -  °F | °C
As of 6:53 AM on Thursday 23 Oct 2014 (Local Time) from KOMK Reporting Station
Overcast Overcast  
Wind Chill: 51°   Ceiling: 11000
Heat Index: 51°   Visibility: 10mi
Dew Point: 43°   Wind: 8mph
Humidity: 74%   Direction: 200°SSW
Pressure: 29.73"   Gusts: NA
Location:  48.6708°N, 119.278°W
Report Text: KOMK 231353Z AUTO 20007KT 10SM OVC110 11/06 A2973 RMK AO2 SLP068 T01060061
Loading
Personal Weather Stations






























Interactive Weather Map New forecast layout! Learn more

10-Day Weather Forecast

Advertisements
Track Severe Weather on mobile